createdAt,value
2022-12-18T00:01:32.340Z,14.45
2022-12-18T00:04:00.316Z,10.38
2022-12-18T00:06:29.837Z,5.88
2022-12-18T00:08:58.937Z,20.80
2022-12-18T00:11:30.625Z,12.35
2022-12-18T00:13:59.484Z,12.18
2022-12-18T00:16:28.474Z,6.57
2022-12-18T00:18:57.723Z,8.40
2022-12-18T00:21:24.461Z,10.05
2022-12-18T00:23:51.971Z,15.15
2022-12-18T00:26:31.516Z,12.30
2022-12-18T00:29:05.862Z,18.27
2022-12-18T00:31:33.283Z,16.55
2022-12-18T00:34:05.889Z,18.20
2022-12-18T00:36:35.478Z,14.77
2022-12-18T00:39:05.842Z,15.25
2022-12-18T00:41:52.152Z,12.35
2022-12-18T00:44:20.074Z,19.02
2022-12-18T00:46:48.479Z,7.13
2022-12-18T00:49:19.991Z,11.00
2022-12-18T00:51:47.279Z,18.20
2022-12-18T00:54:14.171Z,11.18
2022-12-18T00:56:48.286Z,17.00
2022-12-18T00:59:19.759Z,7.03
2022-12-18T01:01:47.996Z,13.70
2022-12-18T01:04:20.875Z,11.05
2022-12-18T01:06:47.623Z,13.40
2022-12-18T01:09:14.465Z,22.60
2022-12-18T01:11:41.441Z,21.05
2022-12-18T01:14:08.518Z,12.27
2022-12-18T01:16:35.375Z,16.63
2022-12-18T01:19:02.156Z,20.55
2022-12-18T01:21:29.100Z,14.57
2022-12-18T01:24:03.233Z,18.30
2022-12-18T01:26:30.674Z,17.45
2022-12-18T01:28:58.580Z,12.95
2022-12-18T01:31:32.481Z,16.95
2022-12-18T01:34:02.792Z,9.98
2022-12-18T01:36:36.009Z,11.15
2022-12-18T01:39:12.031Z,17.92
2022-12-18T01:41:57.863Z,21.27
2022-12-18T01:45:10.847Z,29.20
2022-12-18T01:50:20.519Z,16.50
2022-12-18T01:52:54.201Z,25.98
2022-12-18T01:55:28.036Z,24.73
2022-12-18T01:57:59.280Z,15.70
2022-12-18T02:00:27.805Z,33.85
2022-12-18T02:02:55.487Z,9.60
2022-12-18T02:05:52.224Z,22.98
2022-12-18T02:08:33.941Z,14.27
2022-12-18T02:11:57.575Z,13.50
2022-12-18T02:14:39.677Z,15.35
2022-12-18T02:17:18.859Z,22.45
2022-12-18T02:20:06.906Z,18.38
2022-12-18T02:23:16.369Z,14.75
2022-12-18T02:26:09.237Z,18.40
2022-12-18T02:28:52.887Z,15.48
2022-12-18T02:31:27.300Z,14.00
2022-12-18T02:33:57.814Z,19.60
2022-12-18T02:36:26.110Z,30.20
2022-12-18T02:38:54.691Z,12.30
2022-12-18T02:41:23.037Z,16.05
2022-12-18T02:43:56.449Z,27.58
2022-12-18T02:46:38.217Z,23.35
2022-12-18T02:49:15.639Z,20.95
2022-12-18T02:51:57.728Z,21.80
2022-12-18T02:54:37.438Z,13.57
2022-12-18T02:57:51.317Z,10.02
2022-12-18T03:00:30.313Z,14.07
2022-12-18T03:03:52.247Z,16.63
2022-12-18T03:06:28.128Z,23.65
2022-12-18T03:09:08.441Z,15.10
2022-12-18T03:12:01.557Z,19.05
2022-12-18T03:14:32.224Z,19.95
2022-12-18T03:17:04.019Z,24.63
2022-12-18T03:19:34.416Z,19.58
2022-12-18T03:22:04.792Z,26.98
2022-12-18T03:24:34.455Z,26.30
2022-12-18T03:27:12.971Z,25.40
2022-12-18T03:29:44.908Z,17.00
2022-12-18T03:32:28.241Z,16.42
2022-12-18T03:35:02.425Z,23.45
2022-12-18T03:37:29.261Z,13.60
2022-12-18T03:39:56.055Z,21.80
2022-12-18T03:42:30.721Z,34.03
2022-12-18T03:45:06.293Z,21.67
2022-12-18T03:48:17.561Z,19.05
2022-12-18T03:51:01.999Z,10.77
2022-12-18T03:53:53.008Z,20.38
2022-12-18T03:56:22.259Z,18.17
2022-12-18T03:58:50.086Z,19.65
2022-12-18T04:01:19.100Z,28.52
2022-12-18T04:03:48.163Z,19.67
2022-12-18T04:06:16.187Z,13.73
2022-12-18T04:08:43.716Z,11.13
2022-12-18T04:11:10.529Z,16.08
2022-12-18T04:13:40.045Z,14.15
2022-12-18T04:16:07.889Z,19.42
2022-12-18T04:18:36.231Z,16.50
2022-12-18T04:21:03.960Z,19.90
2022-12-18T04:23:30.727Z,19.00
2022-12-18T04:25:57.508Z,21.48
2022-12-18T04:28:24.212Z,19.90
2022-12-18T04:30:51.148Z,24.83
2022-12-18T04:33:17.948Z,18.10
2022-12-18T04:35:44.960Z,10.68
2022-12-18T04:38:11.901Z,11.80
2022-12-18T04:40:39.387Z,26.45
2022-12-18T04:43:07.935Z,18.00
2022-12-18T04:45:35.189Z,10.35
2022-12-18T04:48:03.512Z,18.45
2022-12-18T04:50:31.585Z,19.40
2022-12-18T04:52:59.849Z,12.00
2022-12-18T04:55:27.119Z,14.73
2022-12-18T04:57:54.115Z,23.27
2022-12-18T05:00:21.551Z,15.65
2022-12-18T05:02:48.440Z,11.68
2022-12-18T05:05:15.920Z,16.30
2022-12-18T05:07:42.712Z,15.30
2022-12-18T05:10:10.218Z,12.55
2022-12-18T05:12:57.405Z,22.15
2022-12-18T05:15:24.151Z,24.13
2022-12-18T05:17:50.935Z,17.83
2022-12-18T05:20:19.210Z,13.68
2022-12-18T05:22:46.105Z,24.42
2022-12-18T05:25:12.874Z,14.00
2022-12-18T05:27:39.612Z,17.58
2022-12-18T05:30:07.187Z,17.65
2022-12-18T05:32:33.912Z,15.20
2022-12-18T05:35:00.666Z,18.05
2022-12-18T05:37:27.438Z,16.25
2022-12-18T05:39:54.164Z,18.45
2022-12-18T05:42:20.922Z,17.35
2022-12-18T05:44:47.626Z,19.90
2022-12-18T05:47:14.442Z,16.20
2022-12-18T05:52:10.032Z,23.92
2022-12-18T05:54:36.758Z,9.30
2022-12-18T05:57:03.592Z,10.18
2022-12-18T05:59:30.322Z,23.80
2022-12-18T06:01:57.163Z,12.48
2022-12-18T06:04:24.044Z,11.80
2022-12-18T06:06:50.803Z,19.02
2022-12-18T06:09:17.521Z,16.73
2022-12-18T06:11:44.397Z,20.27
2022-12-18T06:14:11.202Z,13.32
2022-12-18T06:16:38.020Z,13.32
2022-12-18T06:19:06.884Z,10.85
2022-12-18T06:21:35.533Z,12.90
2022-12-18T06:24:03.085Z,25.95
2022-12-18T06:26:29.828Z,16.48
2022-12-18T06:28:56.945Z,15.93
2022-12-18T06:31:24.222Z,17.05
2022-12-18T06:33:51.333Z,21.40
2022-12-18T06:36:18.570Z,17.23
2022-12-18T06:38:48.297Z,25.70
2022-12-18T06:41:20.887Z,15.57
2022-12-18T06:43:48.077Z,14.10
2022-12-18T06:46:15.026Z,21.15
2022-12-18T06:48:41.876Z,25.15
2022-12-18T06:51:08.814Z,29.63
2022-12-18T06:53:38.375Z,18.55
2022-12-18T06:56:10.552Z,28.10
2022-12-18T07:01:10.175Z,11.60
2022-12-18T07:03:38.925Z,11.20
2022-12-18T07:06:06.353Z,16.95
2022-12-18T07:08:33.693Z,13.85
2022-12-18T07:11:00.648Z,13.35
2022-12-18T07:13:27.820Z,18.80
2022-12-18T07:15:54.628Z,11.88
2022-12-18T07:18:21.440Z,16.02
2022-12-18T07:20:48.171Z,24.92
2022-12-18T07:23:15.774Z,23.20
2022-12-18T07:25:42.546Z,29.10
2022-12-18T07:28:14.154Z,19.83
2022-12-18T07:30:43.850Z,22.17
2022-12-18T07:33:10.574Z,17.33
2022-12-18T07:35:38.475Z,26.42
2022-12-18T07:38:05.241Z,13.10
2022-12-18T07:40:31.953Z,16.50
2022-12-18T07:42:58.764Z,18.67
2022-12-18T07:45:25.576Z,11.68
2022-12-18T07:47:52.369Z,17.45
2022-12-18T07:50:19.201Z,15.82
2022-12-18T07:52:46.026Z,27.35
2022-12-18T07:55:12.752Z,36.83
2022-12-18T07:57:50.435Z,49.38
2022-12-18T08:00:19.021Z,30.10
2022-12-18T08:02:45.839Z,30.67
2022-12-18T08:05:12.841Z,21.50
2022-12-18T08:07:39.935Z,20.92
2022-12-18T08:10:08.046Z,28.23
2022-12-18T08:12:34.781Z,32.03
2022-12-18T08:15:01.958Z,29.13
2022-12-18T08:17:28.730Z,27.05
2022-12-18T08:19:55.461Z,21.75
2022-12-18T08:22:22.249Z,15.30
2022-12-18T08:24:49.029Z,24.98
2022-12-18T08:27:31.222Z,15.70
2022-12-18T08:29:58.849Z,17.90
2022-12-18T08:32:28.440Z,25.33
2022-12-18T08:34:55.262Z,21.00
2022-12-18T08:37:22.040Z,17.65
2022-12-18T08:39:48.796Z,19.45
2022-12-18T08:42:33.984Z,11.95
2022-12-18T08:45:00.759Z,17.48
2022-12-18T08:47:27.505Z,16.85
2022-12-18T08:49:54.365Z,18.25
2022-12-18T08:52:21.137Z,21.33
2022-12-18T08:54:47.911Z,11.85
2022-12-18T08:57:14.678Z,22.75
2022-12-18T08:59:41.417Z,19.08
2022-12-18T09:02:12.556Z,16.58
2022-12-18T09:04:41.004Z,19.92
2022-12-18T09:07:07.813Z,23.02
2022-12-18T09:09:34.553Z,26.52
2022-12-18T09:12:01.267Z,13.40
2022-12-18T09:14:28.000Z,22.38
2022-12-18T09:16:54.789Z,11.65
2022-12-18T09:19:21.553Z,20.02
2022-12-18T09:21:48.705Z,19.55
2022-12-18T09:24:16.432Z,17.45
2022-12-18T09:26:46.822Z,20.23
2022-12-18T09:29:15.611Z,11.85
2022-12-18T09:31:43.274Z,19.42
2022-12-18T09:34:10.033Z,18.55
2022-12-18T09:36:36.897Z,16.48
2022-12-18T09:39:08.288Z,19.60
2022-12-18T09:41:54.776Z,13.43
2022-12-18T09:44:51.994Z,23.95
2022-12-18T09:47:29.363Z,13.40
2022-12-18T09:50:04.005Z,16.52
2022-12-18T09:52:49.772Z,27.52
2022-12-18T09:55:40.615Z,28.95
2022-12-18T09:58:31.504Z,28.95
2022-12-18T10:00:58.473Z,15.18
2022-12-18T10:03:25.484Z,20.58
2022-12-18T10:06:10.090Z,19.15
2022-12-18T10:09:14.264Z,21.63
2022-12-18T10:12:24.902Z,17.95
2022-12-18T10:15:13.653Z,20.60
2022-12-18T10:17:51.284Z,15.80
2022-12-18T10:20:47.986Z,20.40
2022-12-18T10:23:39.179Z,23.23
2022-12-18T10:26:14.256Z,12.48
2022-12-18T10:28:43.120Z,18.35
2022-12-18T10:31:24.740Z,24.25
2022-12-18T10:33:52.531Z,19.58
2022-12-18T10:36:19.693Z,22.15
2022-12-18T10:38:46.586Z,24.38
2022-12-18T10:41:24.247Z,31.83
2022-12-18T10:44:19.027Z,30.05
2022-12-18T10:46:57.185Z,23.52
2022-12-18T10:49:28.746Z,24.85
2022-12-18T10:52:24.148Z,25.17
2022-12-18T10:54:59.503Z,25.17
2022-12-18T10:57:46.422Z,18.98
2022-12-18T11:00:30.255Z,18.73
2022-12-18T11:02:58.875Z,26.80
2022-12-18T11:05:35.115Z,13.98
2022-12-18T11:08:02.271Z,18.67
2022-12-18T11:10:41.119Z,24.60
2022-12-18T11:13:31.294Z,16.13
2022-12-18T11:15:59.009Z,29.10
2022-12-18T11:18:33.444Z,25.50
2022-12-18T11:21:10.582Z,21.88
2022-12-18T11:23:48.347Z,17.25
2022-12-18T11:26:15.483Z,21.15
2022-12-18T11:28:48.747Z,20.13
2022-12-18T11:31:20.252Z,25.98
2022-12-18T11:34:31.200Z,19.00
2022-12-18T11:37:00.887Z,21.27
2022-12-18T11:39:38.253Z,18.70
2022-12-18T11:42:22.967Z,26.10
2022-12-18T11:44:57.353Z,13.77
2022-12-18T11:47:41.836Z,25.50
2022-12-18T11:50:23.330Z,22.27
2022-12-18T11:52:55.921Z,20.40
2022-12-18T11:55:51.038Z,17.63
2022-12-18T11:58:49.203Z,19.98
2022-12-18T12:01:24.651Z,21.88
2022-12-18T12:04:04.139Z,24.15
2022-12-18T12:07:04.480Z,17.17
2022-12-18T12:10:19.664Z,22.80
2022-12-18T12:13:19.946Z,20.50
2022-12-18T12:16:17.431Z,16.90
2022-12-18T12:19:27.095Z,16.65
2022-12-18T12:22:15.210Z,25.55
2022-12-18T12:24:53.189Z,20.30
2022-12-18T12:27:41.029Z,26.08
2022-12-18T12:30:10.276Z,25.08
2022-12-18T12:32:58.781Z,32.33
2022-12-18T12:35:49.854Z,24.63
2022-12-18T12:38:35.366Z,24.35
2022-12-18T12:41:30.683Z,26.23
2022-12-18T12:44:02.636Z,23.05
2022-12-18T12:46:35.294Z,23.23
2022-12-18T12:49:11.248Z,21.42
2022-12-18T12:51:42.608Z,19.15
2022-12-18T12:54:25.990Z,28.17
2022-12-18T12:57:17.633Z,28.83
2022-12-18T12:59:53.980Z,26.45
2022-12-18T13:02:44.998Z,27.27
2022-12-18T13:05:19.074Z,30.45
2022-12-18T13:08:11.732Z,24.27
2022-12-18T13:13:16.550Z,14.68
2022-12-18T13:16:08.571Z,32.22
2022-12-18T13:18:35.757Z,27.08
2022-12-18T13:21:32.307Z,28.60
2022-12-18T13:24:28.180Z,24.20
2022-12-18T13:26:55.281Z,21.20
2022-12-18T13:29:45.809Z,26.33
2022-12-18T13:32:30.511Z,19.17
2022-12-18T13:35:29.511Z,25.15
2022-12-18T13:37:56.675Z,40.75
2022-12-18T13:40:48.335Z,28.45
2022-12-18T13:43:20.823Z,28.48
2022-12-18T13:46:03.157Z,24.00
2022-12-18T13:48:35.401Z,19.97
2022-12-18T13:53:46.009Z,17.00
2022-12-18T13:56:26.476Z,24.27
2022-12-18T13:59:17.858Z,23.15
2022-12-18T14:01:57.371Z,33.63
2022-12-18T14:04:36.286Z,35.53
2022-12-18T14:07:25.017Z,22.65
2022-12-18T14:10:12.098Z,31.23
2022-12-18T14:12:57.972Z,36.05
2022-12-18T14:15:28.051Z,19.35
2022-12-18T14:18:25.484Z,24.15
2022-12-18T14:20:56.879Z,27.42
2022-12-18T14:23:41.595Z,24.42
2022-12-18T14:26:31.089Z,22.02
2022-12-18T14:29:02.063Z,23.92
2022-12-18T14:31:32.055Z,31.27
2022-12-18T14:33:58.918Z,22.13
2022-12-18T14:36:30.063Z,35.47
2022-12-18T14:38:59.626Z,33.30
2022-12-18T14:41:27.501Z,36.22
2022-12-18T14:43:55.622Z,27.60
2022-12-18T14:46:38.453Z,27.80
2022-12-18T14:49:34.071Z,31.73
2022-12-18T14:52:05.175Z,25.95
2022-12-18T14:54:33.127Z,22.60
2022-12-18T14:57:27.907Z,27.55
2022-12-18T14:59:54.673Z,24.02
2022-12-18T15:02:26.801Z,28.88
2022-12-18T15:05:12.662Z,23.83
2022-12-18T15:07:54.949Z,22.73
2022-12-18T15:10:34.222Z,30.08
2022-12-18T15:13:04.098Z,31.52
2022-12-18T15:15:43.478Z,28.98
2022-12-18T15:18:11.518Z,30.70
2022-12-18T15:20:53.301Z,29.20
2022-12-18T15:23:23.800Z,38.13
2022-12-18T15:26:04.347Z,28.20
2022-12-18T15:28:50.853Z,24.98
2022-12-18T15:31:18.102Z,33.83
2022-12-18T15:34:01.730Z,21.45
2022-12-18T15:36:28.455Z,19.95
2022-12-18T15:39:04.547Z,32.40
2022-12-18T15:41:36.919Z,29.50
2022-12-18T15:44:22.171Z,29.75
2022-12-18T15:46:48.911Z,25.65
2022-12-18T15:49:15.625Z,27.73
2022-12-18T15:51:42.580Z,24.15
2022-12-18T15:54:15.077Z,25.02
2022-12-18T15:57:00.579Z,33.88
2022-12-18T15:59:27.853Z,30.95
2022-12-18T16:01:54.696Z,40.08
2022-12-18T16:04:23.452Z,35.17
2022-12-18T16:07:13.726Z,44.35
2022-12-18T16:09:38.329Z,40.92
2022-12-18T16:12:06.497Z,44.00
2022-12-18T16:14:33.849Z,29.60
2022-12-18T16:17:04.265Z,35.28
2022-12-18T16:19:31.321Z,29.83
2022-12-18T16:21:59.603Z,24.10
2022-12-18T16:24:33.840Z,20.15
2022-12-18T16:27:01.942Z,31.15
2022-12-18T16:29:30.361Z,30.25
2022-12-18T16:32:01.658Z,24.25
2022-12-18T16:34:34.880Z,28.35
2022-12-18T16:37:08.287Z,26.95
2022-12-18T16:39:36.276Z,24.23
2022-12-18T16:42:13.692Z,26.00
2022-12-18T16:44:40.638Z,26.38
2022-12-18T16:47:10.206Z,32.38
2022-12-18T16:49:38.726Z,23.65
2022-12-18T16:52:07.051Z,33.13
2022-12-18T16:54:35.212Z,29.90
2022-12-18T16:57:02.017Z,25.42
2022-12-18T16:59:29.438Z,33.25
2022-12-18T17:01:57.565Z,28.90
2022-12-18T17:04:24.588Z,36.83
2022-12-18T17:06:54.117Z,43.75
2022-12-18T17:09:25.479Z,34.92
2022-12-18T17:11:53.949Z,45.05
2022-12-18T17:14:24.449Z,36.28
2022-12-18T17:17:19.140Z,31.33
2022-12-18T17:19:39.400Z,38.45
2022-12-18T17:22:06.169Z,53.95
2022-12-18T17:24:35.215Z,47.15
2022-12-18T17:27:03.638Z,31.40
2022-12-18T17:29:30.946Z,38.15
2022-12-18T17:31:59.277Z,29.85
2022-12-18T17:34:27.884Z,42.40
2022-12-18T17:36:55.227Z,38.05
2022-12-18T17:39:22.274Z,36.55
2022-12-18T17:41:49.593Z,29.23
2022-12-18T17:44:17.581Z,33.25
2022-12-18T17:46:44.610Z,39.92
2022-12-18T17:49:11.864Z,27.67
2022-12-18T17:51:39.029Z,38.92
2022-12-18T17:54:05.990Z,32.78
2022-12-18T17:56:33.311Z,33.00
2022-12-18T17:59:01.228Z,35.83
2022-12-18T18:01:28.755Z,35.25
2022-12-18T18:03:56.379Z,36.35
2022-12-18T18:06:24.393Z,27.52
2022-12-18T18:08:51.621Z,37.70
2022-12-18T18:11:40.680Z,29.35
2022-12-18T18:14:18.221Z,25.40
2022-12-18T18:16:49.617Z,33.17
2022-12-18T18:19:20.110Z,30.77
2022-12-18T18:21:50.598Z,33.88
2022-12-18T18:24:23.558Z,40.45
2022-12-18T18:26:51.118Z,41.30
2022-12-18T18:29:26.613Z,39.85
2022-12-18T18:31:54.750Z,31.52
2022-12-18T18:34:28.179Z,32.20
2022-12-18T18:36:55.048Z,31.83
2022-12-18T18:39:21.868Z,24.67
2022-12-18T18:41:49.056Z,33.88
2022-12-18T18:44:24.775Z,26.38
2022-12-18T18:46:57.765Z,30.90
2022-12-18T18:49:28.420Z,27.38
2022-12-18T18:51:57.012Z,32.05
2022-12-18T18:54:25.306Z,40.38
2022-12-18T18:59:38.925Z,37.28
2022-12-18T19:02:06.097Z,33.97
2022-12-18T19:04:34.154Z,34.88
2022-12-18T19:07:01.358Z,39.13
2022-12-18T19:09:29.464Z,42.78
2022-12-18T19:12:14.962Z,56.88
2022-12-18T19:14:42.237Z,26.80
2022-12-18T19:17:09.427Z,33.28
2022-12-18T19:19:36.231Z,43.50
2022-12-18T19:22:03.321Z,39.95
2022-12-18T19:24:30.109Z,37.33
2022-12-18T19:26:58.235Z,32.75
2022-12-18T19:29:25.638Z,43.00
2022-12-18T19:31:52.885Z,36.00
2022-12-18T19:34:19.746Z,46.55
2022-12-18T19:36:46.763Z,38.70
2022-12-18T19:39:18.088Z,41.10
2022-12-18T19:41:46.414Z,50.65
2022-12-18T19:44:16.336Z,39.42
2022-12-18T19:46:46.187Z,25.05
2022-12-18T19:49:18.241Z,48.70
2022-12-18T19:51:45.832Z,37.10
2022-12-18T19:54:17.363Z,25.27
2022-12-18T19:56:45.786Z,39.27
2022-12-18T19:59:13.185Z,32.92
2022-12-18T20:01:40.154Z,36.08
2022-12-18T20:04:07.199Z,32.42
2022-12-18T20:06:46.053Z,33.92
2022-12-18T20:09:12.817Z,41.50
2022-12-18T20:11:41.939Z,37.70
2022-12-18T20:14:11.067Z,33.83
2022-12-18T20:16:38.293Z,36.88
2022-12-18T20:19:05.935Z,32.55
2022-12-18T20:21:33.774Z,30.95
2022-12-18T20:24:02.161Z,40.33
2022-12-18T20:26:29.672Z,41.78
2022-12-18T20:28:56.776Z,33.25
2022-12-18T20:31:24.443Z,41.08
2022-12-18T20:33:52.259Z,40.78
2022-12-18T20:36:23.441Z,38.95
2022-12-18T20:38:57.014Z,46.83
2022-12-18T20:41:24.904Z,34.50
2022-12-18T20:43:52.024Z,50.35
2022-12-18T20:46:20.532Z,43.22
2022-12-18T20:48:48.246Z,38.35
2022-12-18T20:51:20.544Z,57.17
2022-12-18T20:53:48.155Z,30.67
2022-12-18T20:56:21.999Z,46.45
2022-12-18T20:58:50.314Z,49.63
2022-12-18T21:01:20.803Z,43.63
2022-12-18T21:03:49.004Z,47.78
2022-12-18T21:06:19.394Z,35.17
2022-12-18T21:08:46.341Z,48.90
2022-12-18T21:11:34.890Z,45.53
2022-12-18T21:14:10.745Z,66.80
2022-12-18T21:16:37.921Z,51.95
2022-12-18T21:19:04.749Z,51.58
2022-12-18T21:21:35.064Z,42.03
2022-12-18T21:24:07.165Z,37.45
2022-12-18T21:26:34.557Z,40.00
2022-12-18T21:29:05.721Z,39.88
2022-12-18T21:31:37.022Z,39.30
2022-12-18T21:34:06.193Z,45.95
2022-12-18T21:36:34.505Z,48.92
2022-12-18T21:39:01.839Z,41.95
2022-12-18T21:41:47.808Z,37.40
2022-12-18T21:44:18.423Z,42.03
2022-12-18T21:46:56.165Z,37.17
2022-12-18T21:49:27.311Z,39.45
2022-12-18T21:51:57.530Z,36.00
2022-12-18T21:54:26.362Z,50.95
2022-12-18T21:57:02.457Z,33.25
2022-12-18T21:59:38.975Z,47.95
2022-12-18T22:02:14.536Z,43.72
2022-12-18T22:04:43.130Z,47.72
2022-12-18T22:07:10.536Z,46.95
2022-12-18T22:09:38.269Z,42.95
2022-12-18T22:12:05.396Z,37.42
2022-12-18T22:14:32.325Z,38.30
2022-12-18T22:16:59.110Z,42.85
2022-12-18T22:19:26.676Z,47.78
2022-12-18T22:21:54.721Z,36.75
2022-12-18T22:24:26.680Z,56.20
2022-12-18T22:27:02.033Z,49.13
2022-12-18T22:30:04.960Z,50.30
2022-12-18T22:32:33.752Z,44.13
2022-12-18T22:35:06.198Z,46.38
2022-12-18T22:37:35.021Z,52.25
2022-12-18T22:40:03.346Z,71.90
2022-12-18T22:42:38.957Z,45.67
2022-12-18T22:45:06.296Z,57.25
2022-12-18T22:47:33.029Z,46.88
2022-12-18T22:49:59.748Z,49.92
2022-12-18T22:52:27.519Z,48.78
2022-12-18T22:54:54.557Z,40.10
2022-12-18T22:57:23.228Z,65.30
2022-12-18T22:59:51.587Z,51.85
2022-12-18T23:02:19.310Z,44.30
2022-12-18T23:04:47.852Z,53.72
2022-12-18T23:07:15.465Z,49.75
2022-12-18T23:09:42.286Z,46.28
2022-12-18T23:12:15.878Z,34.50
2022-12-18T23:14:43.199Z,38.30
2022-12-18T23:17:09.912Z,45.53
2022-12-18T23:19:37.477Z,42.25
2022-12-18T23:22:10.058Z,37.72
2022-12-18T23:24:38.427Z,46.50
2022-12-18T23:27:05.747Z,40.75
2022-12-18T23:29:38.457Z,39.50
2022-12-18T23:32:05.233Z,37.72
2022-12-18T23:34:32.168Z,47.78
2022-12-18T23:36:58.901Z,33.63
2022-12-18T23:39:30.046Z,41.15
2022-12-18T23:41:59.506Z,43.55
2022-12-18T23:44:26.548Z,52.78
2022-12-18T23:46:53.383Z,39.70
2022-12-18T23:49:20.408Z,47.33
2022-12-18T23:51:47.191Z,37.20
2022-12-18T23:54:14.081Z,37.85
2022-12-18T23:56:40.951Z,46.90
2022-12-18T23:59:07.683Z,43.17
